Time;durP1;ratioP1;P1;durP2;ratioP2;P2;SDS_P1;SDS_P2;PMS_P1;PMS_P2;Temp;Humidity;BMP_temperature;BMP_pressure;BME280_temperature;BME280_humidity;BME280_pressure;Samples;Min_cycle;Max_cycle;Signal;HPM_P1;HPM_P2
2022/12/07 00:01:11;;;;;;;8.05;1.38;;;5.10;99.90;;;;;;5062954;28;20083;-81
2022/12/07 00:03:38;;;;;;;8.30;1.00;;;5.10;99.90;;;;;;5062399;28;20032;-80
2022/12/07 00:06:05;;;;;;;7.07;1.23;;;5.20;99.90;;;;;;5020302;28;20035;-80
2022/12/07 00:08:32;;;;;;;8.80;1.88;;;5.20;99.90;;;;;;5061520;28;20502;-80
2022/12/07 00:11:06;;;;;;;8.77;1.17;;;5.20;99.90;;;;;;5066213;28;20116;-79
2022/12/07 00:13:32;;;;;;;6.07;1.08;;;5.10;99.90;;;;;;5066680;28;20033;-80
2022/12/07 00:16:29;;;;;;;11.98;1.10;;;5.20;99.90;;;;;;5057777;28;20127;-79
2022/12/07 00:18:55;;;;;;;15.48;1.40;;;5.10;99.90;;;;;;5050476;28;20109;-80
2022/12/07 00:21:28;;;;;;;7.13;1.33;;;5.10;99.90;;;;;;5059153;28;20151;-79
2022/12/07 00:23:56;;;;;;;8.60;1.48;;;5.10;99.90;;;;;;5030510;28;20095;-78
2022/12/07 00:26:28;;;;;;;5.15;1.40;;;5.10;99.90;;;;;;5046869;28;20047;-80
2022/12/07 00:28:56;;;;;;;6.43;2.00;;;5.00;99.90;;;;;;5041280;28;20032;-78
2022/12/07 00:31:25;;;;;;;11.43;2.67;;;4.90;99.90;;;;;;5044575;28;20048;-80
2022/12/07 00:33:51;;;;;;;12.75;3.17;;;4.90;99.90;;;;;;5045982;28;20041;-80
2022/12/07 00:36:20;;;;;;;6.32;1.60;;;4.90;99.90;;;;;;5046339;28;20039;-80
2022/12/07 00:38:46;;;;;;;10.57;2.05;;;4.80;99.90;;;;;;5046255;28;20035;-79
2022/12/07 00:41:17;;;;;;;6.03;1.50;;;4.70;99.90;;;;;;5062920;28;20044;-80
2022/12/07 00:43:45;;;;;;;6.20;1.70;;;4.80;99.90;;;;;;5062068;28;20062;-79
2022/12/07 00:46:11;;;;;;;8.30;1.42;;;4.90;99.90;;;;;;5065592;28;20028;-79
2022/12/07 00:48:37;;;;;;;10.95;1.77;;;4.90;99.90;;;;;;5057664;28;20588;-79
2022/12/07 00:51:04;;;;;;;10.65;1.40;;;4.90;99.90;;;;;;5044300;28;20047;-79
2022/12/07 00:53:30;;;;;;;10.05;1.60;;;4.80;99.90;;;;;;5038882;28;20040;-80
2022/12/07 00:55:56;;;;;;;10.43;2.00;;;4.90;99.90;;;;;;5061465;28;20079;-80
2022/12/07 00:58:22;;;;;;;11.00;1.70;;;5.00;99.90;;;;;;5024313;28;20064;-80
2022/12/07 01:00:48;;;;;;;7.75;1.20;;;4.90;99.90;;;;;;5043154;28;20196;-80
2022/12/07 01:03:15;;;;;;;13.88;1.75;;;4.90;99.90;;;;;;5045615;28;21087;-80
2022/12/07 01:05:50;;;;;;;7.70;1.02;;;4.90;99.90;;;;;;5055079;28;20170;-80
2022/12/07 01:08:15;;;;;;;9.60;1.95;;;5.00;99.90;;;;;;5060784;28;20399;-80
2022/12/07 01:10:41;;;;;;;14.60;2.08;;;4.90;99.90;;;;;;5044802;28;20039;-79
2022/12/07 01:13:07;;;;;;;10.23;1.60;;;5.00;99.90;;;;;;5059800;28;20048;-79
2022/12/07 01:15:32;;;;;;;9.80;1.17;;;5.00;99.90;;;;;;5033364;28;20161;-79
2022/12/07 01:17:58;;;;;;;13.82;1.55;;;5.00;99.90;;;;;;5046029;28;20052;-80
2022/12/07 01:20:24;;;;;;;8.73;1.83;;;5.00;99.90;;;;;;5027861;28;20036;-80
2022/12/07 01:22:49;;;;;;;8.68;2.30;;;5.20;99.90;;;;;;5063896;28;20032;-80
2022/12/07 01:25:16;;;;;;;8.85;2.03;;;5.00;99.90;;;;;;5030525;28;20043;-79
2022/12/07 01:27:41;;;;;;;11.45;1.45;;;4.90;99.90;;;;;;5049841;28;20443;-80
2022/12/07 01:30:08;;;;;;;12.68;1.83;;;4.90;99.90;;;;;;5041667;28;20105;-80
2022/12/07 01:32:34;;;;;;;11.55;1.30;;;4.90;99.90;;;;;;5058427;28;20037;-80
2022/12/07 01:34:59;;;;;;;13.25;2.65;;;4.90;99.90;;;;;;5038491;28;20043;-79
2022/12/07 01:37:25;;;;;;;5.55;1.08;;;4.90;99.90;;;;;;5040330;28;20058;-80
2022/12/07 01:39:51;;;;;;;8.77;1.15;;;5.00;99.90;;;;;;5061360;28;20493;-80
2022/12/07 01:42:18;;;;;;;4.90;0.90;;;5.00;99.90;;;;;;5029865;28;20044;-79
2022/12/07 01:45:17;;;;;;;9.70;1.67;;;5.10;99.90;;;;;;5061093;28;20040;-80
2022/12/07 01:47:47;;;;;;;7.93;1.20;;;5.10;99.90;;;;;;5059111;28;20033;-80
2022/12/07 01:50:14;;;;;;;8.65;1.42;;;5.10;99.90;;;;;;5059647;28;20543;-79
2022/12/07 01:52:41;;;;;;;14.85;1.10;;;5.10;99.90;;;;;;5061141;28;20533;-80
2022/12/07 01:55:13;;;;;;;5.35;1.13;;;5.10;99.90;;;;;;5067866;28;20052;-81
2022/12/07 01:57:43;;;;;;;7.45;1.27;;;5.10;99.90;;;;;;5054718;28;20266;-80
2022/12/07 02:00:10;;;;;;;9.20;1.98;;;5.10;99.90;;;;;;5050871;28;20408;-79
2022/12/07 02:02:52;;;;;;;13.35;0.93;;;5.10;99.90;;;;;;5054988;28;20060;-79
2022/12/07 02:05:18;;;;;;;6.22;1.00;;;5.10;99.90;;;;;;5066357;28;20050;-81
2022/12/07 02:07:47;;;;;;;7.50;1.67;;;4.60;99.90;;;;;;5052831;28;20437;-81
2022/12/07 02:10:17;;;;;;;7.70;1.15;;;5.50;99.90;;;;;;5053509;28;20127;-81
2022/12/07 02:12:46;;;;;;;8.98;1.73;;;5.00;99.90;;;;;;5050228;28;20048;-81
2022/12/07 02:15:12;;;;;;;8.40;1.15;;;4.90;99.90;;;;;;5066763;28;20467;-80
2022/12/07 02:17:47;;;;;;;11.55;2.13;;;5.20;99.90;;;;;;5040785;28;20122;-81
2022/12/07 02:20:39;;;;;;;12.27;1.48;;;4.90;99.90;;;;;;5054595;28;20120;-81
2022/12/07 02:23:31;;;;;;;7.95;0.85;;;4.80;99.90;;;;;;5062454;28;20046;-80
2022/12/07 02:26:29;;;;;;;9.93;1.20;;;4.80;99.90;;;;;;5059880;28;20120;-80
2022/12/07 02:29:14;;;;;;;5.78;1.27;;;4.70;99.90;;;;;;5070782;28;20408;-80
2022/12/07 02:31:49;;;;;;;8.23;1.48;;;4.60;99.90;;;;;;5051334;28;20036;-81
2022/12/07 02:34:27;;;;;;;7.40;1.30;;;4.90;99.90;;;;;;5067076;28;20044;-80
2022/12/07 02:37:00;;;;;;;10.73;1.30;;;4.50;99.90;;;;;;5047001;28;20124;-81
2022/12/07 02:39:43;;;;;;;7.80;1.27;;;4.40;99.90;;;;;;5028123;28;20559;-81
2022/12/07 02:42:25;;;;;;;8.00;1.35;;;4.40;99.90;;;;;;5050091;28;20040;-81
2022/12/07 02:44:51;;;;;;;11.60;2.47;;;4.40;99.90;;;;;;5067459;28;20408;-81
2022/12/07 02:47:21;;;;;;;11.50;1.60;;;4.40;99.90;;;;;;5066318;28;20656;-81
2022/12/07 02:49:47;;;;;;;7.05;1.63;;;4.50;99.90;;;;;;5063256;28;20133;-81
2022/12/07 02:52:13;;;;;;;8.75;1.25;;;4.70;99.90;;;;;;5049925;28;20060;-81
2022/12/07 02:54:38;;;;;;;8.88;1.10;;;5.30;99.90;;;;;;5044490;28;20079;-81
2022/12/07 02:57:04;;;;;;;3.35;0.77;;;4.90;99.90;;;;;;5034045;28;20128;-81
2022/12/07 02:59:43;;;;;;;6.72;1.08;;;4.80;99.90;;;;;;5066889;28;20080;-81
2022/12/07 03:02:31;;;;;;;6.30;1.02;;;5.40;99.90;;;;;;5065270;28;20033;-81
2022/12/07 03:05:08;;;;;;;6.70;0.98;;;4.90;99.90;;;;;;5062199;28;20646;-81
2022/12/07 03:07:40;;;;;;;4.60;0.98;;;5.00;99.90;;;;;;5061400;28;20087;-81
2022/12/07 03:10:20;;;;;;;6.53;1.00;;;5.10;99.90;;;;;;5052054;28;20041;-81
2022/12/07 03:13:00;;;;;;;10.60;1.13;;;5.20;99.90;;;;;;5071042;28;20090;-81
2022/12/07 03:15:44;;;;;;;12.73;1.52;;;5.20;99.90;;;;;;5074677;28;20155;-81
2022/12/07 03:18:12;;;;;;;7.53;1.70;;;5.20;99.90;;;;;;5058610;28;20053;-81
2022/12/07 03:20:40;;;;;;;6.68;1.67;;;5.20;99.90;;;;;;5067035;28;20042;-81
2022/12/07 03:23:11;;;;;;;8.18;1.60;;;5.20;99.90;;;;;;5054045;28;20075;-81
2022/12/07 03:25:45;;;;;;;10.98;1.40;;;5.20;99.90;;;;;;5064638;28;22018;-81
2022/12/07 03:28:13;;;;;;;;;;;5.60;99.90;;;;;;5057646;28;21402;-80
2022/12/07 03:30:45;;;;;;;6.68;1.27;;;5.30;99.90;;;;;;5060841;28;19920;-81
2022/12/07 03:33:24;;;;;;;10.40;1.23;;;5.20;99.90;;;;;;5063393;28;20048;-81
2022/12/07 03:35:56;;;;;;;8.48;3.08;;;5.10;99.90;;;;;;5071467;28;20608;-81
2022/12/07 03:38:28;;;;;;;10.05;1.42;;;5.10;99.90;;;;;;5066850;28;20497;-81
2022/12/07 03:41:22;;;;;;;9.07;1.20;;;5.00;99.90;;;;;;5065298;28;20043;-79
2022/12/07 03:43:48;;;;;;;12.77;1.80;;;5.00;99.90;;;;;;5064318;28;20123;-81
2022/12/07 03:46:38;;;;;;;7.13;1.15;;;5.10;99.90;;;;;;5044277;28;20036;-81
2022/12/07 03:49:09;;;;;;;10.15;1.48;;;5.10;99.90;;;;;;5063766;28;20036;-81
2022/12/07 03:51:48;;;;;;;10.85;1.27;;;5.10;99.90;;;;;;5061200;28;20037;-81
2022/12/07 03:54:30;;;;;;;8.57;1.50;;;5.10;99.90;;;;;;5044183;28;20532;-81
2022/12/07 03:56:57;;;;;;;13.25;1.80;;;5.10;99.90;;;;;;5045857;28;20107;-81
2022/12/07 03:59:23;;;;;;;8.23;1.40;;;5.20;99.90;;;;;;5065124;28;21583;-81
2022/12/07 04:01:55;;;;;;;8.77;1.38;;;5.50;99.90;;;;;;5046455;28;20040;-81
2022/12/07 04:04:22;;;;;;;10.73;1.33;;;5.10;99.90;;;;;;5063544;28;20070;-81
2022/12/07 04:06:47;;;;;;;8.98;1.33;;;5.10;99.90;;;;;;5057030;28;20060;-81
2022/12/07 04:09:14;;;;;;;6.80;1.15;;;5.10;99.90;;;;;;5075344;28;20040;-81
2022/12/07 04:11:40;;;;;;;7.50;1.85;;;5.10;99.90;;;;;;5056319;28;20137;-80
2022/12/07 04:14:21;;;;;;;9.10;1.85;;;5.10;99.90;;;;;;5065745;28;20072;-81
2022/12/07 04:16:48;;;;;;;9.30;1.30;;;5.00;99.90;;;;;;5053920;28;20063;-81
2022/12/07 04:19:15;;;;;;;8.52;1.55;;;5.00;99.90;;;;;;5050072;28;20033;-81
2022/12/07 04:21:40;;;;;;;11.98;1.15;;;5.10;99.90;;;;;;5065298;28;20059;-81
2022/12/07 04:24:06;;;;;;;9.05;1.60;;;5.00;99.90;;;;;;5052438;28;20044;-80
2022/12/07 04:26:32;;;;;;;9.07;1.60;;;5.00;99.90;;;;;;5070340;28;20036;-80
2022/12/07 04:28:57;;;;;;;5.72;1.10;;;4.90;99.90;;;;;;5054329;28;20115;-81
2022/12/07 04:31:23;;;;;;;6.78;1.00;;;4.90;99.90;;;;;;5064564;28;20036;-81
2022/12/07 04:33:49;;;;;;;3.42;1.10;;;4.90;99.90;;;;;;5041097;28;20041;-79
2022/12/07 04:36:15;;;;;;;7.63;1.30;;;4.90;99.90;;;;;;5030958;28;20040;-79
2022/12/07 04:38:41;;;;;;;7.38;1.40;;;4.80;99.90;;;;;;5064248;28;20036;-81
2022/12/07 04:41:08;;;;;;;5.88;0.85;;;4.70;99.90;;;;;;5047009;28;20070;-80
2022/12/07 04:43:34;;;;;;;7.50;1.05;;;5.30;99.90;;;;;;5045967;28;20045;-81
2022/12/07 04:45:59;;;;;;;4.70;0.88;;;5.00;99.90;;;;;;5040104;28;20040;-81
2022/12/07 04:48:25;;;;;;;6.63;1.10;;;4.60;99.90;;;;;;5026353;28;20040;-80
2022/12/07 04:50:51;;;;;;;9.85;1.20;;;4.80;99.90;;;;;;5026241;28;20090;-81
2022/12/07 04:53:16;;;;;;;7.07;1.80;;;4.50;99.90;;;;;;5044011;28;20122;-81
2022/12/07 04:55:43;;;;;;;6.38;0.98;;;4.50;99.90;;;;;;5048750;28;20036;-80
2022/12/07 04:58:09;;;;;;;7.32;1.20;;;5.10;99.90;;;;;;5029543;28;20045;-80
2022/12/07 05:00:34;;;;;;;10.25;1.23;;;4.50;99.90;;;;;;5044622;28;20039;-81
2022/12/07 05:03:00;;;;;;;8.35;1.40;;;4.50;99.90;;;;;;5062736;28;20058;-80
2022/12/07 05:05:26;;;;;;;14.07;2.15;;;4.50;99.90;;;;;;5043532;28;20071;-81
2022/12/07 05:07:51;;;;;;;4.70;1.63;;;4.90;99.90;;;;;;5029133;28;20111;-79
2022/12/07 05:10:17;;;;;;;11.25;3.92;;;4.50;99.90;;;;;;5025103;28;20041;-80
2022/12/07 05:12:43;;;;;;;10.27;3.42;;;4.50;99.90;;;;;;5051254;28;20047;-81
2022/12/07 05:15:09;;;;;;;10.27;1.85;;;4.50;99.90;;;;;;5048532;28;20040;-78
2022/12/07 05:17:35;;;;;;;8.70;2.35;;;4.60;99.90;;;;;;5049393;28;20039;-80
2022/12/07 05:20:00;;;;;;;9.40;1.10;;;4.60;99.90;;;;;;5062125;28;20041;-81
2022/12/07 05:22:27;;;;;;;6.20;1.35;;;4.70;99.90;;;;;;5034692;28;20036;-81
2022/12/07 05:24:54;;;;;;;10.15;1.90;;;4.70;99.90;;;;;;5029281;28;20651;-81
2022/12/07 05:27:20;;;;;;;8.25;1.30;;;4.80;99.90;;;;;;5032935;28;20033;-81
2022/12/07 05:29:46;;;;;;;14.18;1.95;;;4.70;99.90;;;;;;5065949;28;20123;-81
2022/12/07 05:32:12;;;;;;;10.88;1.50;;;4.90;99.90;;;;;;5055478;28;20047;-81
2022/12/07 05:34:38;;;;;;;11.40;1.70;;;4.80;99.90;;;;;;5045206;28;20505;-81
2022/12/07 05:37:03;;;;;;;9.15;2.10;;;4.80;99.90;;;;;;5048459;28;20044;-81
2022/12/07 05:39:29;;;;;;;10.80;1.73;;;4.90;99.90;;;;;;5051365;28;20043;-81
2022/12/07 05:42:13;;;;;;;8.98;1.65;;;4.90;99.90;;;;;;5064654;28;20036;-79
2022/12/07 05:44:40;;;;;;;7.78;1.52;;;5.60;99.90;;;;;;5051322;28;20028;-81
2022/12/07 05:47:06;;;;;;;8.52;1.10;;;5.20;99.90;;;;;;5048342;28;20067;-81
2022/12/07 05:49:32;;;;;;;3.78;1.00;;;4.80;99.90;;;;;;5032794;28;20135;-79
2022/12/07 05:51:57;;;;;;;3.97;1.23;;;4.80;99.90;;;;;;5048030;28;20044;-81
2022/12/07 05:54:23;;;;;;;2.97;0.80;;;4.80;99.90;;;;;;5029907;28;20085;-81
2022/12/07 05:56:49;;;;;;;7.22;1.02;;;4.80;99.90;;;;;;5069063;28;20036;-80
2022/12/07 05:59:23;;;;;;;5.18;1.10;;;5.40;99.90;;;;;;5050270;28;20621;-80
2022/12/07 06:01:53;;;;;;;6.00;1.65;;;5.00;99.90;;;;;;5019792;28;20044;-81
2022/12/07 06:04:20;;;;;;;5.88;0.90;;;4.90;99.90;;;;;;5050314;28;20039;-79
2022/12/07 06:06:46;;;;;;;6.03;1.88;;;4.80;99.90;;;;;;5064856;28;20483;-81
2022/12/07 06:09:15;;;;;;;4.03;1.73;;;4.70;99.90;;;;;;5065890;28;20527;-81
2022/12/07 06:14:25;;;;;;;8.75;1.48;;;4.80;99.90;;;;;;5053784;28;20045;-81
2022/12/07 06:16:51;;;;;;;6.78;1.52;;;4.80;99.90;;;;;;5061151;28;20033;-81
2022/12/07 06:19:17;;;;;;;9.55;1.75;;;4.80;99.90;;;;;;5064011;28;20032;-81
2022/12/07 06:21:42;;;;;;;7.78;1.80;;;4.80;99.90;;;;;;5069159;28;20044;-81
2022/12/07 06:24:11;;;;;;;6.43;1.60;;;4.80;99.90;;;;;;5069678;28;20315;-81
2022/12/07 06:26:38;;;;;;;11.02;2.03;;;4.70;99.90;;;;;;5071530;28;20463;-80
2022/12/07 06:29:04;;;;;;;9.32;1.40;;;5.40;99.90;;;;;;5051475;28;20071;-81
2022/12/07 06:31:29;;;;;;;15.27;1.80;;;4.70;99.90;;;;;;5070735;28;20036;-80
2022/12/07 06:33:59;;;;;;;11.57;2.08;;;4.70;99.90;;;;;;5020167;28;20037;-80
2022/12/07 06:36:25;;;;;;;12.13;2.22;;;4.70;99.90;;;;;;5063795;28;20119;-81
2022/12/07 06:38:51;;;;;;;5.80;1.63;;;4.70;99.90;;;;;;5037284;28;20052;-81
2022/12/07 06:41:16;;;;;;;12.02;2.30;;;5.20;99.90;;;;;;5064987;28;20060;-81
2022/12/07 06:43:42;;;;;;;8.02;1.50;;;4.90;99.90;;;;;;5038807;28;20079;-81
2022/12/07 06:46:08;;;;;;;12.95;1.85;;;5.30;99.90;;;;;;5051845;28;20464;-81
2022/12/07 06:48:33;;;;;;;9.90;1.63;;;4.60;99.90;;;;;;5036968;28;20037;-81
2022/12/07 06:50:59;;;;;;;13.15;2.92;;;4.60;99.90;;;;;;5056176;28;21160;-79
2022/12/07 06:53:25;;;;;;;9.15;1.63;;;4.60;99.90;;;;;;5033174;28;20121;-81
2022/12/07 06:55:51;;;;;;;10.70;2.15;;;4.60;99.90;;;;;;5033815;28;20079;-81
2022/12/07 06:58:17;;;;;;;9.45;1.67;;;4.60;99.90;;;;;;5060389;28;20044;-80
2022/12/07 07:00:43;;;;;;;10.90;1.48;;;4.70;99.90;;;;;;5083457;28;20512;-79
2022/12/07 07:03:09;;;;;;;9.23;2.00;;;5.20;99.90;;;;;;5045372;28;20033;-81
2022/12/07 07:05:35;;;;;;;8.63;2.15;;;4.70;99.90;;;;;;5050061;28;20043;-81
2022/12/07 07:08:01;;;;;;;15.85;1.80;;;4.70;99.90;;;;;;5048193;28;20447;-81
2022/12/07 07:10:26;;;;;;;8.80;1.58;;;5.40;99.90;;;;;;5061044;28;20043;-80
2022/12/07 07:12:52;;;;;;;12.80;2.72;;;4.70;99.90;;;;;;5063470;28;20059;-81
2022/12/07 07:15:18;;;;;;;11.77;2.17;;;4.70;99.90;;;;;;5065562;28;20044;-80
2022/12/07 07:17:44;;;;;;;9.43;1.70;;;4.70;99.90;;;;;;5048219;28;20036;-80
2022/12/07 07:20:10;;;;;;;14.43;2.33;;;4.60;99.90;;;;;;5049932;28;20091;-81
2022/12/07 07:22:36;;;;;;;16.38;2.03;;;4.60;99.90;;;;;;5042113;28;20063;-81
2022/12/07 07:25:01;;;;;;;16.50;3.03;;;4.70;99.90;;;;;;5050863;28;20029;-81
2022/12/07 07:27:27;;;;;;;9.82;1.95;;;4.60;99.90;;;;;;5067406;28;20250;-81
2022/12/07 07:29:53;;;;;;;8.90;2.30;;;4.60;99.90;;;;;;5029944;28;20105;-79
2022/12/07 07:32:19;;;;;;;11.35;1.95;;;4.50;99.90;;;;;;5031453;28;20036;-80
2022/12/07 07:34:44;;;;;;;9.38;2.58;;;4.50;99.90;;;;;;5033928;28;20056;-80
2022/12/07 07:37:12;;;;;;;10.18;2.08;;;4.80;99.90;;;;;;5033146;28;20041;-80
2022/12/07 07:39:38;;;;;;;9.23;1.95;;;4.50;99.90;;;;;;5064054;28;20044;-81
2022/12/07 07:42:04;;;;;;;13.35;2.17;;;4.50;99.90;;;;;;5049799;28;20037;-81
2022/12/07 07:44:30;;;;;;;8.80;2.05;;;4.40;99.90;;;;;;5045281;28;20037;-80
2022/12/07 07:46:56;;;;;;;10.45;1.67;;;4.40;99.90;;;;;;5037714;28;20115;-80
2022/12/07 07:49:21;;;;;;;13.35;1.90;;;4.50;99.90;;;;;;5048393;28;20545;-79
2022/12/07 07:51:47;;;;;;;12.27;2.08;;;4.50;99.90;;;;;;5060365;28;20040;-81
2022/12/07 07:54:13;;;;;;;9.75;1.85;;;4.50;99.90;;;;;;5034782;28;20083;-80
2022/12/07 07:56:38;;;;;;;7.55;1.73;;;4.50;99.90;;;;;;5034106;28;20488;-79
2022/12/07 07:59:04;;;;;;;13.02;2.42;;;4.50;99.90;;;;;;5013780;28;20125;-81
2022/12/07 08:01:30;;;;;;;17.35;2.42;;;4.50;99.90;;;;;;5037419;28;20071;-81
2022/12/07 08:03:55;;;;;;;10.43;2.38;;;4.50;99.90;;;;;;5050645;28;20142;-81
2022/12/07 08:06:21;;;;;;;9.48;2.47;;;4.50;99.90;;;;;;5074993;28;20124;-81
2022/12/07 08:08:47;;;;;;;11.68;2.88;;;4.50;99.90;;;;;;5056000;28;20037;-81
2022/12/07 08:11:12;;;;;;;15.52;4.15;;;4.40;99.90;;;;;;5069935;28;20070;-80
2022/12/07 08:13:38;;;;;;;13.52;2.83;;;4.40;99.90;;;;;;5074666;28;20045;-81
2022/12/07 08:16:06;;;;;;;11.32;2.22;;;5.00;99.90;;;;;;5050282;28;20413;-80
2022/12/07 08:18:35;;;;;;;11.02;2.20;;;4.40;99.90;;;;;;5058608;28;20079;-80
2022/12/07 08:21:02;;;;;;;11.50;2.03;;;4.40;99.90;;;;;;5051728;28;20068;-81
2022/12/07 08:23:28;;;;;;;7.82;1.70;;;4.40;99.90;;;;;;5047906;28;20420;-81
2022/12/07 08:25:54;;;;;;;6.22;1.92;;;4.90;99.90;;;;;;5064264;28;20036;-81
2022/12/07 08:28:19;;;;;;;12.02;2.75;;;4.40;99.90;;;;;;5061718;28;20060;-81
2022/12/07 08:30:45;;;;;;;8.15;1.70;;;4.50;99.90;;;;;;5044960;28;20040;-81
2022/12/07 08:33:11;;;;;;;10.82;1.70;;;4.50;99.90;;;;;;5044923;28;20041;-81
2022/12/07 08:35:36;;;;;;;9.63;1.65;;;4.50;99.90;;;;;;5039888;28;20045;-81
2022/12/07 08:38:03;;;;;;;9.00;1.48;;;4.40;99.90;;;;;;5031203;28;20567;-81
2022/12/07 08:40:29;;;;;;;13.50;2.65;;;4.50;99.90;;;;;;5046690;28;20047;-81
2022/12/07 08:42:55;;;;;;;7.45;2.20;;;4.60;99.90;;;;;;5060413;28;20512;-80
2022/12/07 08:45:21;;;;;;;10.65;2.25;;;4.60;99.90;;;;;;5060336;28;20032;-81
2022/12/07 08:47:50;;;;;;;11.45;2.10;;;5.10;99.90;;;;;;5066263;28;20028;-81
2022/12/07 08:50:17;;;;;;;10.40;2.38;;;4.60;99.90;;;;;;5065120;28;20116;-81
2022/12/07 08:52:43;;;;;;;8.68;2.03;;;4.60;99.90;;;;;;5059103;28;20128;-81
2022/12/07 08:55:12;;;;;;;11.77;1.90;;;5.20;99.90;;;;;;5053918;28;20047;-79
2022/12/07 08:57:39;;;;;;;14.32;1.77;;;4.70;99.90;;;;;;5033622;28;20617;-81
2022/12/07 09:00:06;;;;;;;8.82;1.35;;;5.10;99.90;;;;;;5038194;28;20047;-81
2022/12/07 09:02:32;;;;;;;4.97;1.35;;;4.80;99.90;;;;;;5034884;28;20052;-81
2022/12/07 09:04:57;;;;;;;9.85;1.95;;;4.80;99.90;;;;;;5028051;28;20040;-81
2022/12/07 09:07:24;;;;;;;14.07;2.13;;;4.80;99.90;;;;;;5030658;28;20101;-81
2022/12/07 09:09:50;;;;;;;9.00;1.70;;;4.90;99.90;;;;;;5068256;28;20101;-81
2022/12/07 09:12:16;;;;;;;5.18;1.05;;;4.90;99.90;;;;;;5032142;28;20044;-81
2022/12/07 09:14:42;;;;;;;7.50;1.80;;;4.80;99.90;;;;;;5056594;28;20043;-82
2022/12/07 09:17:09;;;;;;;10.90;1.63;;;4.80;99.90;;;;;;5042858;28;20048;-84
2022/12/07 09:19:35;;;;;;;9.52;1.98;;;4.80;99.90;;;;;;5045134;28;20127;-82
2022/12/07 09:22:01;;;;;;;11.43;1.85;;;4.90;99.90;;;;;;5035553;28;20160;-79
2022/12/07 09:24:27;;;;;;;15.50;1.98;;;4.90;99.90;;;;;;5064995;28;20086;-79
2022/12/07 09:26:53;;;;;;;11.73;1.63;;;4.90;99.90;;;;;;5047431;28;20033;-78
2022/12/07 09:29:18;;;;;;;9.63;1.60;;;5.00;99.90;;;;;;5058261;28;20043;-81
2022/12/07 09:31:44;;;;;;;7.05;1.55;;;5.70;99.90;;;;;;5028159;28;20036;-82
2022/12/07 09:34:10;;;;;;;9.70;2.03;;;5.70;99.90;;;;;;5029284;28;20064;-82
2022/12/07 09:36:35;;;;;;;13.82;2.28;;;5.30;99.90;;;;;;5048866;28;20112;-82
2022/12/07 09:39:02;;;;;;;14.50;2.17;;;6.10;99.90;;;;;;5042592;28;20044;-82
2022/12/07 09:41:31;;;;;;;13.00;2.05;;;5.40;99.90;;;;;;5076213;28;20626;-81
2022/12/07 09:44:06;;;;;;;11.52;1.67;;;5.50;99.90;;;;;;5065857;28;20093;-81
2022/12/07 09:46:37;;;;;;;12.27;2.22;;;5.40;99.90;;;;;;5054159;28;20033;-82
2022/12/07 09:49:03;;;;;;;7.40;1.52;;;5.40;99.90;;;;;;5052400;28;20044;-81
2022/12/07 09:51:29;;;;;;;12.73;2.33;;;5.40;99.90;;;;;;5066842;28;20036;-81
2022/12/07 09:53:57;;;;;;;11.15;1.98;;;5.40;99.90;;;;;;5040257;28;20037;-82
2022/12/07 09:56:24;;;;;;;10.85;1.80;;;5.50;99.90;;;;;;5047638;28;20036;-83
2022/12/07 09:58:57;;;;;;;12.45;2.40;;;5.50;99.90;;;;;;5062016;28;20091;-79
2022/12/07 10:01:23;;;;;;;10.45;2.47;;;5.50;99.90;;;;;;5045624;28;20135;-82
2022/12/07 10:03:51;;;;;;;14.20;2.38;;;5.90;99.90;;;;;;5038666;28;20548;-82
2022/12/07 10:06:17;;;;;;;11.63;3.17;;;5.60;99.90;;;;;;5061714;28;20061;-82
2022/12/07 10:08:43;;;;;;;10.40;1.75;;;5.70;99.90;;;;;;5037159;28;20505;-82
2022/12/07 10:11:10;;;;;;;8.75;1.30;;;5.70;99.90;;;;;;5065898;28;20397;-82
2022/12/07 10:13:40;;;;;;;12.25;1.63;;;6.10;99.90;;;;;;5068070;28;20075;-80
2022/12/07 10:16:27;;;;;;;10.95;1.20;;;6.30;99.90;;;;;;5069196;28;20051;-81
2022/12/07 10:18:54;;;;;;;11.80;1.70;;;5.80;99.90;;;;;;5067235;28;20064;-81
2022/12/07 10:21:27;;;;;;;7.85;1.60;;;6.10;99.90;;;;;;5070885;28;20032;-82
2022/12/07 10:24:03;;;;;;;16.08;3.45;;;6.00;99.90;;;;;;5039248;28;20036;-81
2022/12/07 10:26:51;;;;;;;6.82;1.92;;;5.90;99.90;;;;;;5064695;28;20049;-82
2022/12/07 10:29:28;;;;;;;6.72;1.27;;;5.90;99.90;;;;;;5066396;28;20033;-81
2022/12/07 10:32:01;;;;;;;6.35;2.05;;;5.90;99.90;;;;;;5064581;28;20100;-81
2022/12/07 10:34:33;;;;;;;5.93;0.93;;;6.10;99.90;;;;;;5068121;28;20036;-81
2022/12/07 10:37:14;;;;;;;3.75;0.85;;;6.10;99.90;;;;;;5060449;28;20037;-81
2022/12/07 10:39:42;;;;;;;2.15;0.75;;;6.10;99.90;;;;;;5070142;28;20045;-81
2022/12/07 10:42:18;;;;;;;7.32;0.90;;;6.10;99.90;;;;;;5052566;28;20078;-82
2022/12/07 10:44:44;;;;;;;3.58;0.90;;;6.00;99.90;;;;;;5049225;28;20082;-82
2022/12/07 10:47:12;;;;;;;1.38;0.60;;;6.00;99.90;;;;;;5060110;28;20065;-82
2022/12/07 10:50:12;;;;;;;4.53;0.90;;;6.00;99.90;;;;;;5084386;28;20040;-82
2022/12/07 10:53:02;;;;;;;4.47;0.80;;;6.10;99.90;;;;;;5076876;28;20072;-82
2022/12/07 10:55:28;;;;;;;4.65;0.77;;;6.10;99.90;;;;;;5054418;28;20099;-82
2022/12/07 10:58:00;;;;;;;9.07;1.20;;;6.30;99.90;;;;;;5071376;28;20044;-82
2022/12/07 11:00:34;;;;;;;4.00;0.77;;;6.20;99.90;;;;;;5048482;28;20048;-83
2022/12/07 11:03:19;;;;;;;;;;;6.30;99.90;;;;;;5055442;28;20042;-82
2022/12/07 11:06:04;;;;;;;5.43;1.10;;;6.10;99.90;;;;;;5062425;28;19924;-81
2022/12/07 11:09:02;;;;;;;2.30;0.60;;;6.50;99.90;;;;;;5052509;28;20029;-82
2022/12/07 11:11:49;;;;;;;3.58;0.90;;;6.10;99.90;;;;;;5048011;28;20040;-82
2022/12/07 11:14:15;;;;;;;3.55;0.90;;;6.20;99.90;;;;;;5071049;28;20064;-81
2022/12/07 11:16:41;;;;;;;3.13;0.60;;;6.70;99.90;;;;;;5053701;28;20101;-82
2022/12/07 11:19:31;;;;;;;1.42;0.68;;;6.30;99.90;;;;;;5067886;28;20541;-81
2022/12/07 11:22:13;;;;;;;1.08;0.35;;;6.30;99.90;;;;;;5054760;28;20108;-81
2022/12/07 11:25:14;;;;;;;2.03;0.60;;;6.40;99.90;;;;;;5064794;28;20036;-81
2022/12/07 11:27:44;;;;;;;5.32;0.70;;;6.60;99.90;;;;;;5045185;28;20043;-80
2022/12/07 11:30:09;;;;;;;2.53;0.60;;;6.60;99.90;;;;;;5061687;28;20045;-80
2022/12/07 11:32:47;;;;;;;4.90;0.75;;;6.50;99.90;;;;;;5063831;28;20650;-80
2022/12/07 11:35:19;;;;;;;3.90;0.73;;;6.60;99.90;;;;;;5044426;28;20067;-80
2022/12/07 11:37:46;;;;;;;5.53;0.80;;;6.70;99.90;;;;;;5043718;28;20163;-81
2022/12/07 11:40:12;;;;;;;5.32;1.50;;;6.70;99.90;;;;;;5059593;28;20056;-81
2022/12/07 11:42:53;;;;;;;2.63;0.80;;;6.70;99.90;;;;;;5066571;28;20041;-81
2022/12/07 11:45:26;;;;;;;4.60;0.82;;;6.60;99.90;;;;;;5053478;28;20041;-81
2022/12/07 11:47:58;;;;;;;6.13;1.30;;;6.50;99.90;;;;;;5068495;28;20032;-79
2022/12/07 11:50:45;;;;;;;10.38;1.90;;;6.50;99.90;;;;;;5049346;28;20037;-80
2022/12/07 11:53:18;;;;;;;4.90;1.10;;;5.90;99.90;;;;;;5069173;28;20621;-80
2022/12/07 11:56:11;;;;;;;7.70;1.15;;;5.40;99.90;;;;;;5087423;28;20041;-81
2022/12/07 11:58:50;;;;;;;4.10;0.95;;;5.20;99.90;;;;;;5058210;28;20052;-80
2022/12/07 12:01:33;;;;;;;5.03;1.08;;;5.00;99.90;;;;;;5068634;28;20044;-81
2022/12/07 12:04:11;;;;;;;7.30;0.80;;;4.90;99.90;;;;;;5051830;28;20044;-80
2022/12/07 12:06:38;;;;;;;4.97;0.65;;;4.80;99.90;;;;;;5058852;28;20037;-80
2022/12/07 12:09:25;;;;;;;3.47;0.63;;;4.80;99.90;;;;;;5042111;28;20471;-78
2022/12/07 12:12:07;;;;;;;6.00;0.70;;;4.80;99.90;;;;;;5061546;28;20032;-80
2022/12/07 12:14:51;;;;;;;5.57;0.80;;;4.80;99.90;;;;;;5047313;28;20174;-79
2022/12/07 12:17:25;;;;;;;3.92;1.10;;;4.90;99.90;;;;;;5069600;28;20044;-80
2022/12/07 12:20:00;;;;;;;5.70;0.98;;;4.90;99.90;;;;;;5057639;28;20048;-79
2022/12/07 12:22:42;;;;;;;5.18;1.73;;;5.00;99.90;;;;;;5071996;28;20033;-81
2022/12/07 12:25:30;;;;;;;8.35;1.90;;;5.00;99.90;;;;;;5060927;28;20040;-81
2022/12/07 12:27:59;;;;;;;5.95;1.48;;;5.10;99.90;;;;;;5071656;28;20036;-81
2022/12/07 12:30:40;;;;;;;6.88;1.50;;;5.10;99.90;;;;;;5032551;28;20064;-81
2022/12/07 12:33:28;;;;;;;5.32;1.17;;;5.20;99.90;;;;;;5064009;28;20487;-81
2022/12/07 12:36:15;;;;;;;6.85;1.15;;;5.30;99.90;;;;;;5053987;28;20051;-80
2022/12/07 12:38:48;;;;;;;5.30;0.90;;;5.30;99.90;;;;;;5051563;28;20252;-81
2022/12/07 12:44:14;;;;;;;4.40;1.20;;;5.40;99.90;;;;;;5064345;28;20098;-80
2022/12/07 12:47:02;;;;;;;5.40;1.35;;;5.40;99.90;;;;;;5082914;28;20048;-81
2022/12/07 12:49:38;;;;;;;6.78;3.65;;;5.50;99.90;;;;;;5063674;28;20041;-80
2022/12/07 12:52:13;;;;;;;10.27;4.55;;;5.50;99.90;;;;;;5067837;28;20040;-81
2022/12/07 12:54:56;;;;;;;3.67;1.10;;;5.60;99.90;;;;;;5065171;28;20047;-82
2022/12/07 12:57:22;;;;;;;5.57;1.70;;;6.10;99.90;;;;;;5044419;28;20078;-80
2022/12/07 12:59:51;;;;;;;5.05;1.17;;;5.60;99.90;;;;;;5060845;28;20040;-81
2022/12/07 13:02:24;;;;;;;4.55;1.48;;;5.60;99.90;;;;;;5061529;28;20048;-81
2022/12/07 13:04:55;;;;;;;4.75;1.70;;;5.60;99.90;;;;;;5051041;28;20104;-81
2022/12/07 13:07:40;;;;;;;5.45;1.40;;;5.60;99.90;;;;;;5061198;28;20032;-82
2022/12/07 13:10:23;;;;;;;3.63;1.42;;;5.60;99.90;;;;;;5070589;28;22635;-80
2022/12/07 13:13:17;;;;;;;5.50;1.00;;;5.60;99.90;;;;;;5050029;28;20208;-82
2022/12/07 13:15:47;;;;;;;5.63;1.10;;;5.60;99.90;;;;;;5048191;28;20053;-82